Terminal Aerodrome Forecast
Issued by NWS Shreveport, LA

Home | Current Version | Previous Version | Text Only | Print | Product List | Glossary On
Versions: 1 2 3 4 5 6 7 8 9 10 11 12 13 14 15 16 17 18 19
000
FTUS44 KSHV 290029 CCA
TAFMLU
TAF COR
KMLU 290029Z 2900/2924 19003KT P6SM OVC100
     FM290100 VRB05KT P6SM VCTS SCT020CB BKN040
      TEMPO 2901/2904 VRB15G30KT 2SM +TSRA BKN015CB
     FM290400 29002KT P6SM OVC015
     FM291600 VRB05KT P6SM VCSH BKN015
     FM292000 30004KT P6SM VCTS OVC050CB=

USA.gov is the U.S. government's official web portal to all federal, state and local government web resources and services.